createdAt,value
2023-04-25T00:00:50.271Z,99365.10
2023-04-25T00:03:41.196Z,99363.98
2023-04-25T00:07:08.796Z,99365.46
2023-04-25T00:10:36.824Z,99365.95
2023-04-25T00:13:45.972Z,99364.82
2023-04-25T00:17:14.183Z,99358.88
2023-04-25T00:20:42.071Z,99356.21
2023-04-25T00:24:10.203Z,99360.98
2023-04-25T00:27:38.167Z,99357.29
2023-04-25T00:31:05.954Z,99352.13
2023-04-25T00:34:14.475Z,99355.89
2023-04-25T00:37:42.344Z,99351.95
2023-04-25T00:41:10.570Z,99354.23
2023-04-25T00:44:38.587Z,99350.95
2023-04-25T00:48:06.526Z,99340.23
2023-04-25T00:51:15.601Z,99339.73
2023-04-25T00:54:43.509Z,99332.06
2023-04-25T00:58:11.524Z,99329.38
2023-04-25T01:01:39.432Z,99329.10
2023-04-25T01:05:07.517Z,99326.48
2023-04-25T01:08:17.857Z,99322.26
2023-04-25T01:11:08.085Z,99326.52
2023-04-25T01:14:36.153Z,99324.46
2023-04-25T01:18:04.236Z,99319.48
2023-04-25T01:21:14.060Z,99319.65
2023-04-25T01:24:41.961Z,99312.98
2023-04-25T01:28:09.692Z,99310.08
2023-04-25T01:31:37.653Z,99312.09
2023-04-25T01:35:05.691Z,99309.79
2023-04-25T01:38:33.711Z,99309.92
2023-04-25T01:42:01.581Z,99311.61
2023-04-25T01:45:10.476Z,99315.31
2023-04-25T01:48:38.371Z,99314.48
2023-04-25T01:52:06.068Z,99316.19
2023-04-25T01:55:34.129Z,99314.39
2023-04-25T01:58:43.889Z,99312.56
2023-04-25T02:01:52.873Z,99313.96
2023-04-25T02:05:20.906Z,99308.84
2023-04-25T02:08:48.578Z,99308.61
2023-04-25T02:12:16.505Z,99306.70
2023-04-25T02:15:44.108Z,99303.22
2023-04-25T02:18:54.607Z,99299.58
2023-04-25T02:22:22.518Z,99298.61
2023-04-25T02:25:11.831Z,99293.29
2023-04-25T02:28:39.506Z,99292.14
2023-04-25T02:32:07.508Z,99287.36
2023-04-25T02:35:35.457Z,99282.62
2023-04-25T02:39:03.497Z,99279.86
2023-04-25T02:42:31.533Z,99274.64
2023-04-25T02:45:59.376Z,99273.20
2023-04-25T02:49:09.459Z,99270.08
2023-04-25T02:52:37.534Z,99274.97
2023-04-25T02:56:05.683Z,99272.25
2023-04-25T02:59:33.767Z,99275.36
2023-04-25T03:03:01.939Z,99271.02
2023-04-25T03:06:29.756Z,99269.23
2023-04-25T03:09:57.477Z,99265.27
2023-04-25T03:13:06.410Z,99266.52
2023-04-25T03:16:34.373Z,99255.14
2023-04-25T03:20:02.505Z,99259.68
2023-04-25T03:23:30.405Z,99259.67
2023-04-25T03:26:58.810Z,99259.33
2023-04-25T03:30:26.753Z,99262.98
2023-04-25T03:33:54.859Z,99257.60
2023-04-25T03:37:23.271Z,99253.77
2023-04-25T03:40:51.332Z,99254.48
2023-04-25T03:44:19.334Z,99251.64
2023-04-25T03:47:28.477Z,99251.92
2023-04-25T03:50:37.493Z,99254.12
2023-04-25T03:54:05.513Z,99255.89
2023-04-25T03:57:36.489Z,99259.91
2023-04-25T04:00:45.403Z,99264.95
2023-04-25T04:04:13.811Z,99264.89
2023-04-25T04:07:41.278Z,99263.88
2023-04-25T04:11:09.061Z,99264.90
2023-04-25T04:14:37.049Z,99264.65
2023-04-25T04:17:26.370Z,99264.08
2023-04-25T04:20:54.285Z,99262.33
2023-04-25T04:24:01.102Z,99264.25
2023-04-25T04:26:53.916Z,99270.75
2023-04-25T04:30:34.291Z,99269.35
2023-04-25T04:34:05.927Z,99270.04
2023-04-25T04:37:34.404Z,99271.23
2023-04-25T04:41:02.303Z,99268.51
2023-04-25T04:44:14.794Z,99267.14
2023-04-25T04:47:42.878Z,99265.14
2023-04-25T04:51:17.554Z,99267.39
2023-04-25T04:54:46.874Z,99267.38
2023-04-25T04:58:27.633Z,99267.76
2023-04-25T05:02:01.728Z,99269.43
2023-04-25T05:05:25.637Z,99273.19
2023-04-25T05:08:53.489Z,99273.66
2023-04-25T05:12:21.593Z,99279.08
2023-04-25T05:15:49.544Z,99271.81
2023-04-25T05:19:17.835Z,99271.17
2023-04-25T05:22:57.953Z,99270.65
2023-04-25T05:26:32.036Z,99271.18
2023-04-25T05:29:58.659Z,99270.13
2023-04-25T05:33:26.632Z,99271.80
2023-04-25T05:36:54.692Z,99277.52
2023-04-25T05:40:22.751Z,99281.01
2023-04-25T05:43:51.323Z,99275.21
2023-04-25T05:47:27.834Z,99280.11
2023-04-25T05:50:57.242Z,99279.04
2023-04-25T05:54:40.338Z,99282.76
2023-04-25T05:57:51.391Z,99283.80
2023-04-25T06:01:17.493Z,99283.23
2023-04-25T06:04:07.169Z,99288.02
2023-04-25T06:07:31.628Z,99285.90
2023-04-25T06:10:59.578Z,99285.22
2023-04-25T06:14:29.572Z,99288.63
2023-04-25T06:17:55.469Z,99292.34
2023-04-25T06:21:23.672Z,99296.49
2023-04-25T06:24:51.769Z,99296.98
2023-04-25T06:28:19.518Z,99300.04
2023-04-25T06:31:47.422Z,99299.95
2023-04-25T06:35:15.693Z,99304.48
2023-04-25T06:38:43.793Z,99307.63
2023-04-25T06:42:11.792Z,99305.04
2023-04-25T06:45:39.695Z,99310.52
2023-04-25T06:49:07.640Z,99310.98
2023-04-25T06:52:35.442Z,99310.63
2023-04-25T06:56:03.276Z,99313.64
2023-04-25T06:59:12.242Z,99313.05
2023-04-25T07:02:01.053Z,99312.98
2023-04-25T07:05:29.028Z,99319.33
2023-04-25T07:08:56.932Z,99322.86
2023-04-25T07:12:24.822Z,99323.34
2023-04-25T07:15:15.052Z,99329.77
2023-04-25T07:18:39.373Z,99326.35
2023-04-25T07:21:48.033Z,99330.65
2023-04-25T07:24:59.610Z,99333.33
2023-04-25T07:28:27.549Z,99336.13
2023-04-25T07:31:55.615Z,99333.80
2023-04-25T07:35:23.257Z,99336.54
2023-04-25T07:38:51.273Z,99341.14
2023-04-25T07:41:59.407Z,99346.48
2023-04-25T07:45:27.317Z,99344.92
2023-04-25T07:48:55.168Z,99349.98
2023-04-25T07:52:11.209Z,99354.36
2023-04-25T07:55:20.800Z,99359.51
2023-04-25T07:58:28.032Z,99361.54
2023-04-25T08:01:36.244Z,99369.10
2023-04-25T08:04:07.008Z,99369.98
2023-04-25T08:07:34.813Z,99381.04
2023-04-25T08:11:02.658Z,99384.55
2023-04-25T08:13:52.560Z,99392.45
2023-04-25T08:17:17.353Z,99395.94
2023-04-25T08:20:45.131Z,99399.64
2023-04-25T08:23:53.240Z,99405.45
2023-04-25T08:27:01.365Z,99414.10
2023-04-25T08:30:13.166Z,99415.42
2023-04-25T08:33:24.937Z,99422.45
2023-04-25T08:36:39.856Z,99425.52
2023-04-25T08:39:54.994Z,99433.94
2023-04-25T08:42:47.351Z,99440.01
2023-04-25T08:46:15.250Z,99446.39
2023-04-25T08:49:21.722Z,99453.69
2023-04-25T08:52:12.462Z,99455.36
2023-04-25T08:55:40.543Z,99458.73
2023-04-25T08:58:47.125Z,99468.00
2023-04-25T09:02:15.130Z,99465.55
2023-04-25T09:05:03.947Z,99469.59
2023-04-25T09:08:14.283Z,99474.20
2023-04-25T09:11:41.134Z,99479.42
2023-04-25T09:15:09.029Z,99478.92
2023-04-25T09:18:37.088Z,99481.50
2023-04-25T09:22:04.973Z,99479.87
2023-04-25T09:25:13.768Z,99484.89
2023-04-25T09:28:41.651Z,99486.24
2023-04-25T09:31:31.223Z,99488.86
2023-04-25T09:34:59.270Z,99491.09
2023-04-25T09:38:26.927Z,99490.40
2023-04-25T09:41:57.809Z,99491.16
2023-04-25T09:45:06.891Z,99489.93
2023-04-25T09:48:15.557Z,99492.95
2023-04-25T09:51:24.183Z,99488.56
2023-04-25T09:54:33.166Z,99489.17
2023-04-25T09:57:46.142Z,99490.17
2023-04-25T10:01:14.718Z,99488.01
2023-04-25T10:04:42.603Z,99482.70
2023-04-25T10:08:10.486Z,99486.95
2023-04-25T10:11:38.116Z,99487.05
2023-04-25T10:15:06.224Z,99484.59
2023-04-25T10:18:33.990Z,99485.05
2023-04-25T10:22:02.138Z,99484.73
2023-04-25T10:25:30.229Z,99494.39
2023-04-25T10:28:58.117Z,99490.06
2023-04-25T10:32:27.497Z,99491.79
2023-04-25T10:35:55.036Z,99492.40
2023-04-25T10:39:22.924Z,99493.85
2023-04-25T10:42:11.446Z,99494.35
2023-04-25T10:45:39.483Z,99499.41
2023-04-25T10:48:48.531Z,99498.12
2023-04-25T10:51:57.681Z,99502.85
2023-04-25T10:55:25.766Z,99502.74
2023-04-25T11:01:06.362Z,99504.21
2023-04-25T11:04:34.391Z,99508.55
2023-04-25T11:07:23.751Z,99508.89
2023-04-25T11:10:52.255Z,99505.95
2023-04-25T11:14:00.913Z,99506.66
2023-04-25T11:17:29.148Z,99509.42
2023-04-25T11:20:57.274Z,99510.93
2023-04-25T11:24:25.255Z,99507.90
2023-04-25T11:27:14.641Z,99511.11
2023-04-25T11:30:23.340Z,99510.64
2023-04-25T11:33:51.534Z,99505.70
2023-04-25T11:37:19.234Z,99503.61
2023-04-25T11:40:27.582Z,99502.91
2023-04-25T11:43:55.598Z,99503.29
2023-04-25T11:46:44.777Z,99504.52
2023-04-25T11:50:12.687Z,99504.91
2023-04-25T11:53:40.590Z,99509.34
2023-04-25T11:56:52.842Z,99503.34
2023-04-25T12:00:01.997Z,99497.58
2023-04-25T12:03:30.017Z,99498.63
2023-04-25T12:06:20.694Z,99496.75
2023-04-25T12:09:48.360Z,99495.64
2023-04-25T12:13:16.058Z,99495.35
2023-04-25T12:16:23.904Z,99492.77
2023-04-25T12:19:51.688Z,99491.66
2023-04-25T12:23:19.625Z,99482.77
2023-04-25T12:26:08.758Z,99480.00
2023-04-25T12:29:48.581Z,99478.33
2023-04-25T12:33:04.530Z,99477.98
2023-04-25T12:36:32.482Z,99478.02
2023-04-25T12:40:00.241Z,99479.23
2023-04-25T12:43:08.568Z,99473.13
2023-04-25T12:46:16.976Z,99472.20
2023-04-25T12:49:25.859Z,99474.23
2023-04-25T12:52:53.820Z,99475.30
2023-04-25T12:56:23.620Z,99476.06
2023-04-25T12:59:30.641Z,99473.71
2023-04-25T13:02:58.548Z,99469.42
2023-04-25T13:05:47.474Z,99464.80
2023-04-25T13:09:15.264Z,99464.34
2023-04-25T13:12:43.309Z,99463.80
2023-04-25T13:16:11.096Z,99467.27
2023-04-25T13:19:38.958Z,99461.89
2023-04-25T13:22:46.689Z,99462.10
2023-04-25T13:26:14.732Z,99464.07
2023-04-25T13:29:42.711Z,99465.52
2023-04-25T13:32:50.593Z,99462.59
2023-04-25T13:36:18.302Z,99463.80
2023-04-25T13:39:27.323Z,99462.71
2023-04-25T13:42:55.446Z,99460.94
2023-04-25T13:46:03.368Z,99458.64
2023-04-25T13:49:31.256Z,99463.43
2023-04-25T13:52:59.080Z,99460.38
2023-04-25T13:56:08.905Z,99460.86
2023-04-25T13:59:36.777Z,99457.63
2023-04-25T14:03:04.768Z,99458.63
2023-04-25T14:05:52.577Z,99455.98
2023-04-25T14:09:20.773Z,99457.63
2023-04-25T14:12:48.668Z,99457.58
2023-04-25T14:15:36.969Z,99457.38
2023-04-25T14:19:04.837Z,99454.04
2023-04-25T14:22:32.741Z,99453.88
2023-04-25T14:25:02.597Z,99451.84
2023-04-25T14:28:30.486Z,99451.45
2023-04-25T14:31:47.484Z,99451.02
2023-04-25T14:34:35.632Z,99453.36
2023-04-25T14:37:43.694Z,99449.33
2023-04-25T14:41:11.678Z,99449.64
2023-04-25T14:44:39.533Z,99442.57
2023-04-25T14:48:08.151Z,99444.32
2023-04-25T14:51:36.062Z,99442.80
2023-04-25T14:54:47.668Z,99443.23
2023-04-25T14:58:15.630Z,99438.88
2023-04-25T15:01:06.547Z,99438.33
2023-04-25T15:03:35.519Z,99437.44
2023-04-25T15:06:26.558Z,99437.68
2023-04-25T15:08:57.323Z,99440.93
2023-04-25T15:11:27.882Z,99434.97
2023-04-25T15:14:20.168Z,99440.95
2023-04-25T15:17:29.124Z,99441.89
2023-04-25T15:19:57.882Z,99440.46
2023-04-25T15:22:46.017Z,99439.51
2023-04-25T15:26:09.830Z,99438.96
2023-04-25T15:28:57.851Z,99439.89
2023-04-25T15:31:30.140Z,99437.62
2023-04-25T15:33:59.228Z,99442.65
2023-04-25T15:36:47.277Z,99446.73
2023-04-25T15:39:55.181Z,99444.38
2023-04-25T15:42:23.647Z,99444.55
2023-04-25T15:45:51.545Z,99443.19
2023-04-25T15:48:41.652Z,99439.41
2023-04-25T15:51:12.188Z,99437.27
2023-04-25T15:53:41.623Z,99435.27
2023-04-25T15:56:30.739Z,99428.90
2023-04-25T15:59:00.056Z,99428.95
2023-04-25T16:02:17.094Z,99426.59
2023-04-25T16:04:46.849Z,99425.45
2023-04-25T16:07:16.226Z,99425.83
2023-04-25T16:10:05.729Z,99424.67
2023-04-25T16:13:13.634Z,99428.52
2023-04-25T16:15:41.830Z,99424.98
2023-04-25T16:18:50.121Z,99428.27
2023-04-25T16:22:18.206Z,99423.30
2023-04-25T16:25:26.598Z,99426.89
2023-04-25T16:28:54.559Z,99425.39
2023-04-25T16:31:24.176Z,99429.38
2023-04-25T16:34:51.770Z,99434.20
2023-04-25T16:37:20.125Z,99435.64
2023-04-25T16:39:48.350Z,99432.20
2023-04-25T16:42:56.169Z,99433.55
2023-04-25T16:46:04.087Z,99437.55
2023-04-25T16:49:12.339Z,99443.45
2023-04-25T16:52:40.541Z,99445.68
2023-04-25T16:55:29.127Z,99448.59
2023-04-25T16:57:58.141Z,99450.88
2023-04-25T17:01:05.895Z,99453.90
2023-04-25T17:03:56.727Z,99458.48
2023-04-25T17:06:46.101Z,99457.45
2023-04-25T17:09:34.395Z,99463.46
2023-04-25T17:12:42.801Z,99464.44
2023-04-25T17:16:10.560Z,99467.80
2023-04-25T17:19:39.572Z,99473.00
2023-04-25T17:22:27.550Z,99476.27
2023-04-25T17:25:35.501Z,99481.80
2023-04-25T17:28:43.211Z,99489.75
2023-04-25T17:31:51.044Z,99493.35
2023-04-25T17:34:58.861Z,99493.70
2023-04-25T17:38:06.605Z,99496.52
2023-04-25T17:40:54.650Z,99496.50
2023-04-25T17:44:23.397Z,99499.05
2023-04-25T17:47:27.349Z,99502.33
2023-04-25T17:50:36.518Z,99501.38
2023-04-25T17:54:06.836Z,99507.44
2023-04-25T17:57:34.865Z,99505.90
2023-04-25T18:01:02.625Z,99515.73
2023-04-25T18:04:30.359Z,99525.70
2023-04-25T18:07:53.716Z,99525.89
2023-04-25T18:11:21.747Z,99528.90
2023-04-25T18:14:10.176Z,99535.89
2023-04-25T18:16:59.109Z,99540.39
2023-04-25T18:19:28.518Z,99546.77
2023-04-25T18:22:16.184Z,99548.18
2023-04-25T18:25:24.353Z,99551.79
2023-04-25T18:28:20.004Z,99556.52
2023-04-25T18:31:09.157Z,99557.76
2023-04-25T18:33:57.732Z,99560.61
2023-04-25T18:37:25.502Z,99564.63
2023-04-25T18:40:35.135Z,99563.52
2023-04-25T18:43:42.079Z,99566.33
2023-04-25T18:47:09.698Z,99567.64
2023-04-25T18:50:38.584Z,99567.98
2023-04-25T18:54:05.380Z,99570.32
2023-04-25T18:57:33.081Z,99573.92
2023-04-25T19:00:40.890Z,99572.30
2023-04-25T19:03:50.749Z,99580.96
2023-04-25T19:06:19.526Z,99581.20
2023-04-25T19:09:10.494Z,99582.52
2023-04-25T19:12:38.393Z,99582.01
2023-04-25T19:15:26.124Z,99582.80
2023-04-25T19:18:34.158Z,99585.32
2023-04-25T19:21:42.453Z,99589.98
2023-04-25T19:25:11.164Z,99587.94
2023-04-25T19:28:38.338Z,99590.62
2023-04-25T19:31:46.268Z,99588.70
2023-04-25T19:35:14.083Z,99592.09
2023-04-25T19:38:22.296Z,99590.77
2023-04-25T19:41:50.104Z,99590.27
2023-04-25T19:45:17.866Z,99590.05
2023-04-25T19:48:25.944Z,99591.80
2023-04-25T19:51:34.648Z,99597.19
2023-04-25T19:54:42.904Z,99595.52
2023-04-25T19:58:10.535Z,99599.17
2023-04-25T20:01:18.779Z,99592.58
2023-04-25T20:04:06.720Z,99592.15
2023-04-25T20:06:44.812Z,99594.07
2023-04-25T20:10:12.587Z,99595.56
2023-04-25T20:13:40.180Z,99600.75
2023-04-25T20:17:08.044Z,99601.09
2023-04-25T20:20:36.021Z,99603.10
2023-04-25T20:23:45.077Z,99604.48
2023-04-25T20:27:12.650Z,99605.97
2023-04-25T20:30:40.187Z,99604.91
2023-04-25T20:34:07.945Z,99607.66
2023-04-25T20:36:56.432Z,99604.02
2023-04-25T20:40:24.065Z,99610.92
2023-04-25T20:43:51.848Z,99610.81
2023-04-25T20:47:19.507Z,99608.92
2023-04-25T20:50:32.734Z,99613.02
2023-04-25T20:53:40.840Z,99614.34
2023-04-25T20:57:08.523Z,99613.46
2023-04-25T21:00:36.937Z,99622.58
2023-04-25T21:03:45.902Z,99619.63
2023-04-25T21:07:13.323Z,99622.00
2023-04-25T21:10:41.080Z,99622.99
2023-04-25T21:14:08.749Z,99621.36
2023-04-25T21:17:17.058Z,99628.88
2023-04-25T21:20:32.307Z,99626.45
2023-04-25T21:23:21.314Z,99626.63
2023-04-25T21:26:29.264Z,99625.00
2023-04-25T21:29:57.023Z,99624.50
2023-04-25T21:33:05.944Z,99621.32
2023-04-25T21:36:15.462Z,99625.21
2023-04-25T21:39:43.198Z,99625.14
2023-04-25T21:43:09.178Z,99627.29
2023-04-25T21:46:23.560Z,99629.81
2023-04-25T21:49:48.072Z,99632.41
2023-04-25T21:53:15.579Z,99631.85
2023-04-25T21:56:43.456Z,99627.60
2023-04-25T22:00:11.142Z,99629.08
2023-04-25T22:03:38.867Z,99632.19
2023-04-25T22:06:46.829Z,99630.73
2023-04-25T22:09:17.447Z,99632.88
2023-04-25T22:12:45.258Z,99636.95
2023-04-25T22:16:12.803Z,99640.13
2023-04-25T22:19:40.525Z,99646.13
2023-04-25T22:23:08.317Z,99646.04
2023-04-25T22:26:35.988Z,99649.27
2023-04-25T22:30:03.629Z,99652.13
2023-04-25T22:33:31.304Z,99654.98
2023-04-25T22:36:59.078Z,99660.66
2023-04-25T22:40:26.683Z,99668.07
2023-04-25T22:43:54.069Z,99666.63
2023-04-25T22:47:22.306Z,99670.03
2023-04-25T22:50:50.330Z,99663.17
2023-04-25T22:54:18.283Z,99662.56
2023-04-25T22:57:45.853Z,99666.25
2023-04-25T23:01:13.672Z,99663.17
2023-04-25T23:04:41.110Z,99665.91
2023-04-25T23:08:08.817Z,99667.02
2023-04-25T23:11:36.960Z,99668.77
2023-04-25T23:14:45.593Z,99670.97
2023-04-25T23:18:13.026Z,99666.54
2023-04-25T23:21:40.740Z,99661.77
2023-04-25T23:24:49.602Z,99666.98
2023-04-25T23:28:17.356Z,99666.48
2023-04-25T23:31:45.220Z,99668.30
2023-04-25T23:35:12.927Z,99667.63
2023-04-25T23:38:02.295Z,99665.20
2023-04-25T23:41:29.994Z,99669.64
2023-04-25T23:44:57.721Z,99671.61
2023-04-25T23:48:25.447Z,99672.71
2023-04-25T23:51:53.442Z,99675.71
2023-04-25T23:55:01.932Z,99671.44
2023-04-25T23:58:29.503Z,99673.98
